Time;durP1;ratioP1;P1;durP2;ratioP2;P2;SDS_P1;SDS_P2;PMS_P1;PMS_P2;Temp;Humidity;BMP_temperature;BMP_pressure;BME280_temperature;BME280_humidity;BME280_pressure;Samples;Min_cycle;Max_cycle;Signal;HPM_P1;HPM_P2
2022/07/27 00:00:04;;;;;;;;;;;;;;;;;;6297167;22;19915;-85
2022/07/27 00:02:31;;;;;;;;;;;;;;;;;;6299463;22;19911;-84
2022/07/27 00:04:58;;;;;;;;;;;;;;;;;;6295538;22;19911;-84
2022/07/27 00:07:25;;;;;;;;;;;;;;;;;;6272411;22;19915;-85
2022/07/27 00:09:51;;;;;;;;;;;;;;;;;;6297510;22;19942;-85
2022/07/27 00:12:17;;;;;;;;;;;;;;;;;;6272113;22;19911;-85
2022/07/27 00:14:45;;;;;;;;;;;;;;;;;;6301164;22;19917;-89
2022/07/27 00:17:12;;;;;;;;;;;;;;;;;;6331996;22;19972;-90
2022/07/27 00:19:40;;;;;;;;;;;;;;;;;;6333679;22;19935;-91
2022/07/27 00:22:07;;;;;;;;;;;;;;;;;;6332205;22;19979;-91
2022/07/27 00:24:34;;;;;;;;;;;;;;;;;;6333385;22;20004;-90
2022/07/27 00:27:01;;;;;;;;;;;;;;;;;;6331969;22;19989;-90
2022/07/27 00:29:28;;;;;;;;;;;;;;;;;;6333944;22;19938;-90
2022/07/27 00:31:55;;;;;;;;;;;;;;;;;;6332389;22;19914;-90
2022/07/27 00:34:23;;;;;;;;;;;;;;;;;;6333253;22;19914;-90
2022/07/27 00:36:50;;;;;;;;;;;;;;;;;;6332557;22;19913;-91
2022/07/27 00:39:17;;;;;;;;;;;;;;;;;;6330586;22;19914;-90
2022/07/27 00:41:45;;;;;;;;;;;;;;;;;;6333281;22;19910;-90
2022/07/27 00:44:12;;;;;;;;;;;;;;;;;;6330986;22;20298;-90
2022/07/27 00:46:40;;;;;;;;;;;;;;;;;;6333132;22;19963;-90
2022/07/27 00:49:07;;;;;;;;;;;;;;;;;;6330021;22;20319;-90
2022/07/27 00:51:35;;;;;;;;;;;;;;;;;;6333368;22;20208;-90
2022/07/27 00:54:02;;;;;;;;;;;;;;;;;;6331151;22;19910;-89
2022/07/27 00:56:29;;;;;;;;;;;;;;;;;;6333449;22;19914;-90
2022/07/27 00:58:57;;;;;;;;;;;;;;;;;;6331684;22;19910;-90
2022/07/27 01:01:23;;;;;;;;;;;;;;;;;;6333927;22;19937;-89
2022/07/27 01:03:52;;;;;;;;;;;;;;;;;;6361905;22;19914;-90
2022/07/27 01:06:34;;;;;;;;;;;;;;;;;;6303923;22;19914;-90
2022/07/27 01:12:00;;;;;;;;;;;;;;;;;;6324197;22;19927;-90
2022/07/27 01:14:27;;;;;;;;;;;;;;;;;;6299902;22;19914;-90
2022/07/27 01:16:55;;;;;;;;;;;;;;;;;;6272091;22;19922;-89
2022/07/27 01:19:22;;;;;;;;;;;;;;;;;;6300008;22;20366;-90
2022/07/27 01:21:50;;;;;;;;;;;;;;;;;;6274877;22;19914;-90
2022/07/27 01:24:17;;;;;;;;;;;;;;;;;;6297763;22;20416;-90
2022/07/27 01:26:48;;;;;;;;;;;;;;;;;;6301398;22;19922;-90
2022/07/27 01:29:14;;;;;;;;;;;;;;;;;;6297566;22;19914;-90
2022/07/27 01:31:46;;;;;;;;;;;;;;;;;;6326465;22;19941;-90
2022/07/27 01:34:13;;;;;;;;;;;;;;;;;;6322453;22;20413;-90
2022/07/27 01:37:00;;;;;;;;;;;;;;;;;;6273881;22;19939;-90
2022/07/27 01:39:26;;;;;;;;;;;;;;;;;;6298987;22;20280;-89
2022/07/27 01:41:53;;;;;;;;;;;;;;;;;;6297957;22;20034;-89
2022/07/27 01:44:19;;;;;;;;;;;;;;;;;;6272314;22;19963;-89
2022/07/27 01:46:45;;;;;;;;;;;;;;;;;;6273159;22;19914;-89
2022/07/27 01:49:12;;;;;;;;;;;;;;;;;;6272682;22;20345;-90
2022/07/27 01:51:39;;;;;;;;;;;;;;;;;;6300902;22;19960;-89
2022/07/27 01:54:06;;;;;;;;;;;;;;;;;;6325111;22;20358;-90
2022/07/27 01:56:34;;;;;;;;;;;;;;;;;;6303397;22;19982;-90
2022/07/27 01:59:01;;;;;;;;;;;;;;;;;;6301266;22;19918;-90
2022/07/27 02:01:28;;;;;;;;;;;;;;;;;;6277219;22;19926;-90
2022/07/27 02:03:55;;;;;;;;;;;;;;;;;;6299975;22;20327;-90
2022/07/27 02:06:21;;;;;;;;;;;;;;;;;;6276952;22;19910;-89
2022/07/27 02:08:47;;;;;;;;;;;;;;;;;;6329221;22;19917;-90
2022/07/27 02:14:05;;;;;;;;;;;;;;;;;;6300178;22;19922;-90
2022/07/27 02:16:31;;;;;;;;;;;;;;;;;;6302375;22;20278;-90
2022/07/27 02:18:58;;;;;;;;;;;;;;;;;;6300170;22;19936;-90
2022/07/27 02:21:25;;;;;;;;;;;;;;;;;;6302270;22;19915;-90
2022/07/27 02:23:51;;;;;;;;;;;;;;;;;;6276327;22;19925;-90
2022/07/27 02:26:19;;;;;;;;;;;;;;;;;;6328605;22;20261;-89
2022/07/27 02:28:46;;;;;;;;;;;;;;;;;;6334958;22;20223;-90
2022/07/27 02:31:13;;;;;;;;;;;;;;;;;;6332784;22;19918;-89
2022/07/27 02:33:41;;;;;;;;;;;;;;;;;;6335163;22;19914;-90
2022/07/27 02:36:08;;;;;;;;;;;;;;;;;;6331939;22;19914;-91
2022/07/27 02:38:35;;;;;;;;;;;;;;;;;;6308905;22;19978;-90
2022/07/27 02:41:02;;;;;;;;;;;;;;;;;;6332956;22;20255;-90
2022/07/27 02:43:29;;;;;;;;;;;;;;;;;;6335120;22;19982;-90
2022/07/27 02:45:56;;;;;;;;;;;;;;;;;;6333471;22;19918;-90
2022/07/27 02:48:22;;;;;;;;;;;;;;;;;;6335162;22;19942;-89
2022/07/27 02:50:50;;;;;;;;;;;;;;;;;;6334839;22;20321;-90
2022/07/27 02:53:18;;;;;;;;;;;;;;;;;;6333137;22;19974;-90
2022/07/27 02:55:44;;;;;;;;;;;;;;;;;;6335342;22;19986;-90
2022/07/27 02:58:11;;;;;;;;;;;;;;;;;;6332540;22;19922;-89
2022/07/27 03:00:39;;;;;;;;;;;;;;;;;;6334980;22;19917;-89
2022/07/27 03:03:27;;;;;;;;;;;;;;;;;;6302036;22;19914;-89
2022/07/27 03:05:54;;;;;;;;;;;;;;;;;;6301603;22;19918;-90
2022/07/27 03:08:19;;;;;;;;;;;;;;;;;;6302145;22;20283;-88
2022/07/27 03:10:47;;;;;;;;;;;;;;;;;;6302828;22;19925;-89
2022/07/27 03:13:14;;;;;;;;;;;;;;;;;;6300586;22;20009;-90
2022/07/27 03:15:41;;;;;;;;;;;;;;;;;;6302674;22;19918;-89
2022/07/27 03:18:09;;;;;;;;;;;;;;;;;;6300229;22;19915;-90
2022/07/27 03:20:35;;;;;;;;;;;;;;;;;;6301980;22;20258;-89
2022/07/27 03:23:02;;;;;;;;;;;;;;;;;;6300097;22;19910;-89
2022/07/27 03:25:30;;;;;;;;;;;;;;;;;;6302105;22;19917;-89
2022/07/27 03:27:57;;;;;;;;;;;;;;;;;;6299689;22;19916;-89
2022/07/27 03:30:24;;;;;;;;;;;;;;;;;;6301690;22;19925;-90
2022/07/27 03:32:51;;;;;;;;;;;;;;;;;;6301712;22;20390;-89
2022/07/27 03:35:19;;;;;;;;;;;;;;;;;;6325484;22;19934;-90
2022/07/27 03:37:45;;;;;;;;;;;;;;;;;;6301878;22;19910;-89
2022/07/27 03:40:11;;;;;;;;;;;;;;;;;;6299496;22;19914;-89
2022/07/27 03:42:43;;;;;;;;;;;;;;;;;;6301838;22;20294;-90
2022/07/27 03:45:10;;;;;;;;;;;;;;;;;;6299545;22;19914;-89
2022/07/27 03:47:38;;;;;;;;;;;;;;;;;;6322469;22;19985;-90
2022/07/27 03:50:04;;;;;;;;;;;;;;;;;;6331866;22;19931;-89
2022/07/27 03:52:31;;;;;;;;;;;;;;;;;;6334107;22;19977;-89
2022/07/27 03:54:58;;;;;;;;;;;;;;;;;;6330666;22;19914;-90
2022/07/27 03:57:26;;;;;;;;;;;;;;;;;;6332234;22;19914;-90
2022/07/27 03:59:52;;;;;;;;;;;;;;;;;;6332197;22;19910;-90
2022/07/27 04:02:19;;;;;;;;;;;;;;;;;;6331008;22;19921;-89
2022/07/27 04:04:45;;;;;;;;;;;;;;;;;;6332077;22;19914;-89
2022/07/27 04:07:12;;;;;;;;;;;;;;;;;;6329952;22;19911;-90
2022/07/27 04:09:39;;;;;;;;;;;;;;;;;;6332478;22;19945;-89
2022/07/27 04:12:07;;;;;;;;;;;;;;;;;;6331939;22;19914;-89
2022/07/27 04:14:35;;;;;;;;;;;;;;;;;;6360817;22;19983;-89
2022/07/27 04:17:00;;;;;;;;;;;;;;;;;;6331553;22;19924;-89
2022/07/27 04:19:26;;;;;;;;;;;;;;;;;;6334023;22;19981;-89
2022/07/27 04:22:09;;;;;;;;;;;;;;;;;;6359527;22;19959;-89
2022/07/27 04:24:36;;;;;;;;;;;;;;;;;;6334203;22;20283;-90
2022/07/27 04:27:03;;;;;;;;;;;;;;;;;;6332131;22;19911;-90
2022/07/27 04:29:44;;;;;;;;;;;;;;;;;;6266098;22;19953;-89
2022/07/27 04:32:11;;;;;;;;;;;;;;;;;;6237828;22;20464;-89
2022/07/27 04:34:39;;;;;;;;;;;;;;;;;;6265582;22;19918;-89
2022/07/27 04:37:06;;;;;;;;;;;;;;;;;;6263465;22;19911;-89
2022/07/27 04:39:33;;;;;;;;;;;;;;;;;;6240126;22;20010;-89
2022/07/27 04:42:00;;;;;;;;;;;;;;;;;;6263455;22;19969;-89
2022/07/27 04:44:27;;;;;;;;;;;;;;;;;;6240332;22;19914;-89
2022/07/27 04:46:55;;;;;;;;;;;;;;;;;;6238111;22;20367;-90
2022/07/27 04:49:22;;;;;;;;;;;;;;;;;;6239366;22;20287;-89
2022/07/27 04:51:49;;;;;;;;;;;;;;;;;;6239598;22;19915;-89
2022/07/27 04:54:15;;;;;;;;;;;;;;;;;;6236703;22;20032;-89
2022/07/27 04:56:42;;;;;;;;;;;;;;;;;;6238824;22;19911;-90
2022/07/27 04:59:10;;;;;;;;;;;;;;;;;;6236895;22;19965;-89
2022/07/27 05:01:37;;;;;;;;;;;;;;;;;;6320464;22;19922;-89
2022/07/27 05:04:04;;;;;;;;;;;;;;;;;;6330997;22;20294;-90
2022/07/27 05:06:32;;;;;;;;;;;;;;;;;;6333901;22;20276;-89
2022/07/27 05:08:59;;;;;;;;;;;;;;;;;;6360169;22;20223;-89
2022/07/27 05:11:26;;;;;;;;;;;;;;;;;;6333754;22;19927;-89
2022/07/27 05:13:53;;;;;;;;;;;;;;;;;;6333802;22;19910;-90
2022/07/27 05:16:21;;;;;;;;;;;;;;;;;;6333571;22;19915;-90
2022/07/27 05:18:48;;;;;;;;;;;;;;;;;;6334086;22;20295;-89
2022/07/27 05:21:14;;;;;;;;;;;;;;;;;;6330911;22;20017;-90
2022/07/27 05:23:41;;;;;;;;;;;;;;;;;;6333476;22;19956;-89
2022/07/27 05:26:08;;;;;;;;;;;;;;;;;;6330783;22;19909;-89
2022/07/27 05:28:35;;;;;;;;;;;;;;;;;;6333597;22;19914;-89
2022/07/27 05:31:02;;;;;;;;;;;;;;;;;;6330641;22;19918;-89
2022/07/27 05:33:29;;;;;;;;;;;;;;;;;;6333692;22;19963;-89
2022/07/27 05:35:57;;;;;;;;;;;;;;;;;;6331455;22;20005;-89
2022/07/27 05:38:22;;;;;;;;;;;;;;;;;;6333886;22;19910;-89
2022/07/27 05:41:03;;;;;;;;;;;;;;;;;;6262679;22;19918;-89
2022/07/27 05:43:32;;;;;;;;;;;;;;;;;;6239003;22;20023;-89
2022/07/27 05:45:59;;;;;;;;;;;;;;;;;;6236773;22;19918;-90
2022/07/27 05:48:26;;;;;;;;;;;;;;;;;;6239985;22;20270;-89
2022/07/27 05:50:52;;;;;;;;;;;;;;;;;;6238433;22;20010;-90
2022/07/27 05:53:19;;;;;;;;;;;;;;;;;;6263437;22;19946;-89
2022/07/27 05:56:00;;;;;;;;;;;;;;;;;;6262090;22;19911;-89
2022/07/27 05:58:26;;;;;;;;;;;;;;;;;;6239199;22;20381;-89
2022/07/27 06:01:07;;;;;;;;;;;;;;;;;;6201224;23;19915;-89
2022/07/27 06:03:34;;;;;;;;;;;;;;;;;;6178519;23;20392;-89
2022/07/27 06:08:48;;;;;;;;;;;;;;;;;;6204055;23;19979;-89
2022/07/27 06:11:14;;;;;;;;;;;;;;;;;;6186090;22;19930;-89
2022/07/27 06:13:41;;;;;;;;;;;;;;;;;;6264627;22;19915;-90
2022/07/27 06:16:08;;;;;;;;;;;;;;;;;;6243579;22;20017;-89
2022/07/27 06:18:34;;;;;;;;;;;;;;;;;;6206382;23;19919;-90
2022/07/27 06:21:01;;;;;;;;;;;;;;;;;;6203789;23;19912;-90
2022/07/27 06:23:28;;;;;;;;;;;;;;;;;;6206050;23;19939;-88
2022/07/27 06:25:55;;;;;;;;;;;;;;;;;;6203664;23;19995;-89
2022/07/27 06:28:21;;;;;;;;;;;;;;;;;;6206118;23;19911;-89
2022/07/27 06:30:48;;;;;;;;;;;;;;;;;;6206094;23;19969;-90
2022/07/27 06:33:14;;;;;;;;;;;;;;;;;;6289575;22;19914;-90
2022/07/27 06:35:41;;;;;;;;;;;;;;;;;;6296254;22;19919;-88
2022/07/27 06:38:08;;;;;;;;;;;;;;;;;;6294360;22;19919;-89
2022/07/27 06:40:36;;;;;;;;;;;;;;;;;;6297064;22;20308;-90
2022/07/27 06:43:03;;;;;;;;;;;;;;;;;;6296556;22;19911;-89
2022/07/27 06:45:30;;;;;;;;;;;;;;;;;;6298265;22;19922;-89
2022/07/27 06:47:57;;;;;;;;;;;;;;;;;;6296510;22;19949;-89
2022/07/27 06:50:39;;;;;;;;;;;;;;;;;;6300679;22;19925;-89
2022/07/27 06:53:06;;;;;;;;;;;;;;;;;;6296435;22;20243;-89
2022/07/27 06:55:33;;;;;;;;;;;;;;;;;;6300935;22;19922;-90
2022/07/27 06:58:00;;;;;;;;;;;;;;;;;;6296756;22;20327;-90
2022/07/27 07:00:27;;;;;;;;;;;;;;;;;;6298523;22;20604;-91
2022/07/27 07:02:54;;;;;;;;;;;;;;;;;;6297343;22;19915;-90
2022/07/27 07:05:21;;;;;;;;;;;;;;;;;;6298875;22;20216;-91
2022/07/27 07:07:50;;;;;;;;;;;;;;;;;;6299690;22;19990;-91
2022/07/27 07:10:17;;;;;;;;;;;;;;;;;;6296525;22;19946;-91
2022/07/27 07:12:54;;;;;;;;;;;;;;;;;;6299467;22;20394;-90
2022/07/27 07:15:23;;;;;;;;;;;;;;;;;;6333631;22;20216;-91
2022/07/27 07:17:50;;;;;;;;;;;;;;;;;;6327582;22;19918;-91
2022/07/27 07:20:16;;;;;;;;;;;;;;;;;;6314007;22;20318;-91
2022/07/27 07:22:43;;;;;;;;;;;;;;;;;;6303432;22;19981;-91
2022/07/27 07:25:10;;;;;;;;;;;;;;;;;;6329087;22;19911;-91
2022/07/27 07:27:37;;;;;;;;;;;;;;;;;;6303232;22;20323;-91
2022/07/27 07:30:03;;;;;;;;;;;;;;;;;;6323565;22;19926;-91
2022/07/27 07:32:44;;;;;;;;;;;;;;;;;;6289475;22;20226;-90
2022/07/27 07:35:11;;;;;;;;;;;;;;;;;;6268442;22;19986;-91
2022/07/27 07:37:37;;;;;;;;;;;;;;;;;;6245472;22;19997;-91
2022/07/27 07:40:05;;;;;;;;;;;;;;;;;;6242947;22;19922;-91
2022/07/27 07:42:32;;;;;;;;;;;;;;;;;;6269134;22;19915;-91
2022/07/27 07:44:58;;;;;;;;;;;;;;;;;;6240488;22;20479;-90
2022/07/27 07:47:28;;;;;;;;;;;;;;;;;;6293214;22;20053;-90
2022/07/27 07:49:56;;;;;;;;;;;;;;;;;;6266318;22;19914;-91
2022/07/27 07:52:23;;;;;;;;;;;;;;;;;;6268176;22;19914;-90
2022/07/27 07:54:50;;;;;;;;;;;;;;;;;;6268943;22;20404;-90
2022/07/27 07:57:16;;;;;;;;;;;;;;;;;;6268194;22;20320;-90
2022/07/27 07:59:44;;;;;;;;;;;;;;;;;;6269303;22;19938;-90
2022/07/27 08:02:11;;;;;;;;;;;;;;;;;;6268258;22;20153;-90
2022/07/27 08:04:38;;;;;;;;;;;;;;;;;;6320609;22;19917;-91
2022/07/27 08:07:05;;;;;;;;;;;;;;;;;;6301363;22;19915;-91
2022/07/27 08:09:31;;;;;;;;;;;;;;;;;;6354660;22;19910;-90
2022/07/27 08:11:59;;;;;;;;;;;;;;;;;;6326972;22;19915;-91
2022/07/27 08:14:26;;;;;;;;;;;;;;;;;;6329379;22;19914;-91
2022/07/27 08:16:52;;;;;;;;;;;;;;;;;;6327318;22;19918;-90
2022/07/27 08:19:21;;;;;;;;;;;;;;;;;;6331074;22;19911;-90
2022/07/27 08:21:49;;;;;;;;;;;;;;;;;;6303382;22;19921;-91
2022/07/27 08:24:16;;;;;;;;;;;;;;;;;;6301341;22;19914;-91
2022/07/27 08:26:43;;;;;;;;;;;;;;;;;;6331745;22;19910;-91
2022/07/27 08:29:10;;;;;;;;;;;;;;;;;;6301050;22;19910;-91
2022/07/27 08:31:38;;;;;;;;;;;;;;;;;;6302490;22;19925;-90
2022/07/27 08:34:04;;;;;;;;;;;;;;;;;;6352124;22;20243;-90
2022/07/27 08:36:31;;;;;;;;;;;;;;;;;;6328720;22;19918;-90
2022/07/27 08:39:00;;;;;;;;;;;;;;;;;;6326173;22;19914;-90
2022/07/27 08:41:26;;;;;;;;;;;;;;;;;;6326597;22;20001;-91
2022/07/27 08:43:52;;;;;;;;;;;;;;;;;;6324603;22;20368;-91
2022/07/27 08:46:20;;;;;;;;;;;;;;;;;;6300307;22;20010;-91
2022/07/27 08:48:47;;;;;;;;;;;;;;;;;;6306977;22;19914;-90
2022/07/27 08:51:14;;;;;;;;;;;;;;;;;;6323848;22;20796;-91
2022/07/27 08:53:41;;;;;;;;;;;;;;;;;;6299761;22;20041;-92
2022/07/27 08:56:14;;;;;;;;;;;;;;;;;;6314696;22;20410;-91
2022/07/27 08:58:42;;;;;;;;;;;;;;;;;;6309696;22;19925;-92
2022/07/27 09:01:08;;;;;;;;;;;;;;;;;;6326414;22;19910;-91
2022/07/27 09:03:35;;;;;;;;;;;;;;;;;;6302608;22;19937;-91
2022/07/27 09:06:03;;;;;;;;;;;;;;;;;;6326533;22;19980;-91
2022/07/27 09:08:32;;;;;;;;;;;;;;;;;;6328682;22;20389;-91
2022/07/27 09:11:00;;;;;;;;;;;;;;;;;;6352210;22;19925;-91
2022/07/27 09:13:26;;;;;;;;;;;;;;;;;;6328440;22;19989;-91
2022/07/27 09:15:53;;;;;;;;;;;;;;;;;;6328278;22;20333;-91
2022/07/27 09:18:19;;;;;;;;;;;;;;;;;;6302271;22;20338;-92
2022/07/27 09:20:45;;;;;;;;;;;;;;;;;;6328429;22;19910;-91
2022/07/27 09:23:13;;;;;;;;;;;;;;;;;;6328239;22;19960;-91
2022/07/27 09:25:40;;;;;;;;;;;;;;;;;;6307094;22;19920;-90
2022/07/27 09:28:10;;;;;;;;;;;;;;;;;;6352273;22;20238;-90
2022/07/27 09:30:37;;;;;;;;;;;;;;;;;;6327933;22;20033;-90
2022/07/27 09:33:05;;;;;;;;;;;;;;;;;;6323690;22;19915;-90
2022/07/27 09:35:33;;;;;;;;;;;;;;;;;;6302197;22;20247;-91
2022/07/27 09:38:00;;;;;;;;;;;;;;;;;;6326429;22;19914;-91
2022/07/27 09:40:27;;;;;;;;;;;;;;;;;;6329024;22;19918;-90
2022/07/27 09:43:12;;;;;;;;;;;;;;;;;;6326567;22;19910;-91
2022/07/27 09:45:42;;;;;;;;;;;;;;;;;;6330387;22;19914;-91
2022/07/27 09:48:09;;;;;;;;;;;;;;;;;;6352609;22;19911;-92
2022/07/27 09:50:56;;;;;;;;;;;;;;;;;;6298387;22;19914;-91
2022/07/27 09:53:22;;;;;;;;;;;;;;;;;;6300810;22;20029;-90
2022/07/27 09:55:49;;;;;;;;;;;;;;;;;;6301031;22;19953;-91
2022/07/27 09:58:15;;;;;;;;;;;;;;;;;;6299144;22;19910;-91
2022/07/27 10:00:41;;;;;;;;;;;;;;;;;;6300696;22;19989;-91
2022/07/27 10:03:08;;;;;;;;;;;;;;;;;;6298847;22;19915;-91
2022/07/27 10:05:35;;;;;;;;;;;;;;;;;;6300517;22;20654;-91
2022/07/27 10:08:03;;;;;;;;;;;;;;;;;;6298686;22;19910;-90
2022/07/27 10:10:30;;;;;;;;;;;;;;;;;;6325864;22;19925;-91
2022/07/27 10:12:57;;;;;;;;;;;;;;;;;;6299166;22;19915;-91
2022/07/27 10:15:23;;;;;;;;;;;;;;;;;;6300891;22;19969;-91
2022/07/27 10:17:50;;;;;;;;;;;;;;;;;;6303556;22;19949;-91
2022/07/27 10:20:17;;;;;;;;;;;;;;;;;;6326755;22;20244;-91
2022/07/27 10:22:44;;;;;;;;;;;;;;;;;;6328877;22;19918;-91
2022/07/27 10:25:11;;;;;;;;;;;;;;;;;;6301105;22;19978;-90
2022/07/27 10:27:38;;;;;;;;;;;;;;;;;;6303405;22;19917;-91
2022/07/27 10:30:05;;;;;;;;;;;;;;;;;;6326958;22;19911;-90
2022/07/27 10:32:33;;;;;;;;;;;;;;;;;;6302660;22;19915;-90
2022/07/27 10:35:00;;;;;;;;;;;;;;;;;;6314087;22;19910;-91
2022/07/27 10:37:28;;;;;;;;;;;;;;;;;;6330426;22;19911;-91
2022/07/27 10:40:33;;;;;;;;;;;;;;;;;;6301339;22;19925;-91
2022/07/27 10:42:41;;;;;;;;;;;;;;;;;;6356219;22;19918;-91
2022/07/27 10:45:07;;;;;;;;;;;;;;;;;;6300828;22;20238;-91
2022/07/27 10:47:35;;;;;;;;;;;;;;;;;;6304362;22;19910;-91
2022/07/27 10:50:02;;;;;;;;;;;;;;;;;;6327964;22;20297;-92
2022/07/27 10:52:29;;;;;;;;;;;;;;;;;;6303727;22;19954;-92
2022/07/27 10:54:58;;;;;;;;;;;;;;;;;;6322343;22;19918;-92
2022/07/27 10:57:24;;;;;;;;;;;;;;;;;;6329882;22;19929;-91
2022/07/27 10:59:50;;;;;;;;;;;;;;;;;;6330005;22;19910;-92
2022/07/27 11:02:19;;;;;;;;;;;;;;;;;;6327602;22;19971;-91
2022/07/27 11:04:47;;;;;;;;;;;;;;;;;;6302141;22;20188;-91
2022/07/27 11:07:17;;;;;;;;;;;;;;;;;;6351494;22;19914;-91
2022/07/27 11:09:44;;;;;;;;;;;;;;;;;;6327536;22;19980;-91
2022/07/27 11:12:12;;;;;;;;;;;;;;;;;;6299085;22;20365;-92
2022/07/27 11:14:40;;;;;;;;;;;;;;;;;;6329629;22;19910;-91
2022/07/27 11:17:06;;;;;;;;;;;;;;;;;;6326280;22;20312;-92
2022/07/27 11:19:33;;;;;;;;;;;;;;;;;;6328369;22;19929;-91
2022/07/27 11:21:59;;;;;;;;;;;;;;;;;;6301109;22;19914;-90
2022/07/27 11:24:26;;;;;;;;;;;;;;;;;;6328457;22;19917;-92
2022/07/27 11:26:54;;;;;;;;;;;;;;;;;;6353471;22;19989;-92
2022/07/27 11:29:20;;;;;;;;;;;;;;;;;;6328666;22;19965;-91
2022/07/27 11:31:47;;;;;;;;;;;;;;;;;;6328848;22;19914;-90
2022/07/27 11:34:16;;;;;;;;;;;;;;;;;;6300139;22;19921;-91
2022/07/27 11:36:43;;;;;;;;;;;;;;;;;;6330803;22;19957;-92
2022/07/27 11:39:09;;;;;;;;;;;;;;;;;;6300373;22;19918;-92
2022/07/27 11:41:37;;;;;;;;;;;;;;;;;;6302771;22;20284;-92
2022/07/27 11:44:04;;;;;;;;;;;;;;;;;;6310553;22;20312;-92
2022/07/27 11:46:31;;;;;;;;;;;;;;;;;;6329408;22;20331;-92
2022/07/27 11:48:59;;;;;;;;;;;;;;;;;;6328409;22;19914;-91
2022/07/27 11:51:26;;;;;;;;;;;;;;;;;;6330308;22;19968;-91
2022/07/27 11:53:53;;;;;;;;;;;;;;;;;;6328833;22;19941;-92
2022/07/27 11:56:34;;;;;;;;;;;;;;;;;;6304780;22;19911;-91
2022/07/27 11:59:01;;;;;;;;;;;;;;;;;;6325643;22;20045;-91
2022/07/27 12:01:28;;;;;;;;;;;;;;;;;;6301872;22;19911;-91
2022/07/27 12:03:55;;;;;;;;;;;;;;;;;;6325473;22;19914;-91
2022/07/27 12:06:21;;;;;;;;;;;;;;;;;;6327392;22;19914;-90
2022/07/27 12:08:49;;;;;;;;;;;;;;;;;;6301551;22;19921;-91
2022/07/27 12:11:17;;;;;;;;;;;;;;;;;;6325422;22;20208;-91
2022/07/27 12:13:43;;;;;;;;;;;;;;;;;;6327921;22;19995;-91
2022/07/27 12:16:11;;;;;;;;;;;;;;;;;;6324311;22;20024;-91
2022/07/27 12:18:37;;;;;;;;;;;;;;;;;;6301459;22;19953;-91
2022/07/27 12:21:10;;;;;;;;;;;;;;;;;;6300819;22;19944;-91
2022/07/27 12:23:37;;;;;;;;;;;;;;;;;;6301476;22;19932;-92
2022/07/27 12:26:04;;;;;;;;;;;;;;;;;;6300327;22;19948;-92
2022/07/27 12:28:31;;;;;;;;;;;;;;;;;;6303071;22;19942;-91
2022/07/27 12:30:57;;;;;;;;;;;;;;;;;;6327354;22;20370;-91
2022/07/27 12:33:27;;;;;;;;;;;;;;;;;;6330525;22;19910;-91
2022/07/27 12:35:53;;;;;;;;;;;;;;;;;;6324894;22;19914;-92
2022/07/27 12:38:19;;;;;;;;;;;;;;;;;;6326670;22;19922;-92
2022/07/27 12:40:45;;;;;;;;;;;;;;;;;;6307024;22;19914;-91
2022/07/27 12:43:12;;;;;;;;;;;;;;;;;;6298083;22;19914;-92
2022/07/27 12:45:40;;;;;;;;;;;;;;;;;;6318759;22;20382;-92
2022/07/27 12:48:07;;;;;;;;;;;;;;;;;;6298631;22;19940;-91
2022/07/27 12:50:34;;;;;;;;;;;;;;;;;;6303508;22;19923;-92
2022/07/27 12:53:01;;;;;;;;;;;;;;;;;;6299557;22;19915;-92
2022/07/27 12:55:29;;;;;;;;;;;;;;;;;;6302395;22;19910;-91
2022/07/27 12:57:56;;;;;;;;;;;;;;;;;;6302838;22;20380;-91
2022/07/27 13:00:23;;;;;;;;;;;;;;;;;;6330561;22;20350;-91
2022/07/27 13:02:50;;;;;;;;;;;;;;;;;;6328353;22;19918;-91
2022/07/27 13:05:36;;;;;;;;;;;;;;;;;;6328901;22;19913;-90
2022/07/27 13:08:03;;;;;;;;;;;;;;;;;;6300112;22;19975;-92
2022/07/27 13:10:31;;;;;;;;;;;;;;;;;;6354447;22;19999;-91
2022/07/27 13:12:58;;;;;;;;;;;;;;;;;;6328668;22;20272;-91
2022/07/27 13:15:25;;;;;;;;;;;;;;;;;;6330463;22;19994;-91
2022/07/27 13:17:51;;;;;;;;;;;;;;;;;;6328565;22;19910;-91
2022/07/27 13:20:19;;;;;;;;;;;;;;;;;;6327494;22;20209;-91
2022/07/27 13:22:46;;;;;;;;;;;;;;;;;;6330306;22;19910;-91
2022/07/27 13:25:13;;;;;;;;;;;;;;;;;;6328105;22;20684;-92
2022/07/27 13:27:48;;;;;;;;;;;;;;;;;;6330805;22;19964;-92
2022/07/27 13:30:14;;;;;;;;;;;;;;;;;;6312205;22;19921;-91
2022/07/27 13:32:45;;;;;;;;;;;;;;;;;;6330358;22;19921;-92
2022/07/27 13:35:12;;;;;;;;;;;;;;;;;;6325704;22;19936;-91
2022/07/27 13:37:48;;;;;;;;;;;;;;;;;;6330514;22;19960;-92
2022/07/27 13:40:17;;;;;;;;;;;;;;;;;;6354340;22;19914;-92
2022/07/27 13:42:44;;;;;;;;;;;;;;;;;;6328615;22;20038;-91
2022/07/27 13:45:11;;;;;;;;;;;;;;;;;;6300404;22;19914;-92
2022/07/27 13:47:38;;;;;;;;;;;;;;;;;;6329829;22;19926;-91
2022/07/27 13:50:07;;;;;;;;;;;;;;;;;;6325938;22;19914;-91
2022/07/27 13:52:35;;;;;;;;;;;;;;;;;;6332442;22;19961;-92
2022/07/27 13:55:02;;;;;;;;;;;;;;;;;;6354434;22;19921;-92
2022/07/27 13:57:28;;;;;;;;;;;;;;;;;;6330527;22;20242;-92
2022/07/27 13:59:58;;;;;;;;;;;;;;;;;;6330701;22;19914;-91
2022/07/27 14:02:26;;;;;;;;;;;;;;;;;;6330327;22;20009;-91
2022/07/27 14:04:52;;;;;;;;;;;;;;;;;;6330392;22;19985;-90
2022/07/27 14:07:19;;;;;;;;;;;;;;;;;;6328368;22;19918;-91
2022/07/27 14:12:29;;;;;;;;;;;;;;;;;;6329615;22;19945;-92
2022/07/27 14:14:56;;;;;;;;;;;;;;;;;;6327140;22;19930;-91
2022/07/27 14:17:24;;;;;;;;;;;;;;;;;;6303665;22;19921;-91
2022/07/27 14:19:50;;;;;;;;;;;;;;;;;;6304106;22;19914;-92
2022/07/27 14:22:16;;;;;;;;;;;;;;;;;;6301313;22;19963;-92
2022/07/27 14:24:43;;;;;;;;;;;;;;;;;;6308923;22;19949;-92
2022/07/27 14:27:09;;;;;;;;;;;;;;;;;;6301580;22;20231;-92
2022/07/27 14:29:36;;;;;;;;;;;;;;;;;;6321838;22;19991;-92
2022/07/27 14:32:04;;;;;;;;;;;;;;;;;;6301577;22;19922;-91
2022/07/27 14:34:31;;;;;;;;;;;;;;;;;;6354968;22;19921;-92
2022/07/27 14:36:59;;;;;;;;;;;;;;;;;;6327490;22;19938;-92
2022/07/27 14:39:25;;;;;;;;;;;;;;;;;;6329254;22;20365;-91
2022/07/27 14:41:52;;;;;;;;;;;;;;;;;;6310525;22;19910;-92
2022/07/27 14:44:33;;;;;;;;;;;;;;;;;;6234853;23;19998;-92
2022/07/27 14:47:01;;;;;;;;;;;;;;;;;;6209062;23;19915;-91
2022/07/27 14:49:49;;;;;;;;;;;;;;;;;;6209483;23;19915;-92
2022/07/27 14:52:17;;;;;;;;;;;;;;;;;;6179016;23;19916;-92
2022/07/27 14:54:46;;;;;;;;;;;;;;;;;;6204937;23;19916;-91
2022/07/27 14:57:13;;;;;;;;;;;;;;;;;;6203245;23;20365;-91
2022/07/27 14:59:48;;;;;;;;;;;;;;;;;;6203167;23;19919;-91
2022/07/27 15:02:16;;;;;;;;;;;;;;;;;;6175989;23;20339;-91
2022/07/27 15:04:43;;;;;;;;;;;;;;;;;;6152685;23;20324;-91
2022/07/27 15:07:25;;;;;;;;;;;;;;;;;;6113770;23;19961;-92
2022/07/27 15:09:52;;;;;;;;;;;;;;;;;;6088731;23;19983;-91
2022/07/27 15:12:22;;;;;;;;;;;;;;;;;;6113954;23;20000;-90
2022/07/27 15:14:49;;;;;;;;;;;;;;;;;;6106112;23;19970;-91
2022/07/27 15:17:15;;;;;;;;;;;;;;;;;;6152756;23;19998;-92
2022/07/27 15:19:42;;;;;;;;;;;;;;;;;;6154982;23;19915;-92
2022/07/27 15:22:10;;;;;;;;;;;;;;;;;;6152992;23;19969;-92
2022/07/27 15:24:37;;;;;;;;;;;;;;;;;;6154803;23;19926;-91
2022/07/27 15:27:04;;;;;;;;;;;;;;;;;;6157911;23;19919;-91
2022/07/27 15:29:31;;;;;;;;;;;;;;;;;;6180708;23;19926;-91
2022/07/27 15:31:58;;;;;;;;;;;;;;;;;;6177593;23;19916;-92
2022/07/27 15:34:25;;;;;;;;;;;;;;;;;;6154930;23;20059;-92
2022/07/27 15:36:51;;;;;;;;;;;;;;;;;;6155126;23;19912;-91
2022/07/27 15:39:36;;;;;;;;;;;;;;;;;;6296116;22;19928;-92
2022/07/27 15:42:03;;;;;;;;;;;;;;;;;;6332016;22;19997;-92
2022/07/27 15:44:31;;;;;;;;;;;;;;;;;;6362819;22;19945;-91
2022/07/27 15:47:01;;;;;;;;;;;;;;;;;;6333391;22;19979;-91
2022/07/27 15:49:27;;;;;;;;;;;;;;;;;;6334247;22;19938;-92
2022/07/27 15:51:53;;;;;;;;;;;;;;;;;;6333464;22;19944;-93
2022/07/27 15:54:23;;;;;;;;;;;;;;;;;;6363101;22;19937;-92
2022/07/27 15:56:49;;;;;;;;;;;;;;;;;;6334677;22;19989;-92
2022/07/27 15:59:16;;;;;;;;;;;;;;;;;;6332733;22;19949;-92
2022/07/27 16:01:43;;;;;;;;;;;;;;;;;;6334879;22;19947;-93
2022/07/27 16:04:10;;;;;;;;;;;;;;;;;;6333126;22;19910;-92
2022/07/27 16:06:38;;;;;;;;;;;;;;;;;;6334607;22;20257;-92
2022/07/27 16:09:05;;;;;;;;;;;;;;;;;;6332062;22;20009;-92
2022/07/27 16:11:33;;;;;;;;;;;;;;;;;;6334312;22;19918;-92
2022/07/27 16:13:59;;;;;;;;;;;;;;;;;;6332132;22;19946;-93
2022/07/27 16:16:28;;;;;;;;;;;;;;;;;;6323700;22;20007;-91
2022/07/27 16:18:55;;;;;;;;;;;;;;;;;;6297529;22;19911;-92
2022/07/27 16:21:22;;;;;;;;;;;;;;;;;;6298462;22;20315;-92
2022/07/27 16:23:49;;;;;;;;;;;;;;;;;;6297800;22;19993;-92
2022/07/27 16:26:16;;;;;;;;;;;;;;;;;;6269727;22;19911;-92
2022/07/27 16:28:42;;;;;;;;;;;;;;;;;;6297415;22;19914;-90
2022/07/27 16:31:09;;;;;;;;;;;;;;;;;;6268823;22;19922;-92
2022/07/27 16:33:37;;;;;;;;;;;;;;;;;;6297396;22;19919;-92
2022/07/27 16:36:04;;;;;;;;;;;;;;;;;;6269384;22;19922;-92
2022/07/27 16:38:31;;;;;;;;;;;;;;;;;;6297511;22;19929;-92
2022/07/27 16:40:58;;;;;;;;;;;;;;;;;;6294520;22;20244;-91
2022/07/27 16:43:28;;;;;;;;;;;;;;;;;;6296984;22;19914;-91
2022/07/27 16:45:56;;;;;;;;;;;;;;;;;;6269868;22;19911;-92
2022/07/27 16:48:22;;;;;;;;;;;;;;;;;;6297685;22;19968;-91
2022/07/27 16:51:09;;;;;;;;;;;;;;;;;;6295609;22;19921;-92
2022/07/27 16:53:37;;;;;;;;;;;;;;;;;;6296999;22;20009;-91
2022/07/27 16:56:04;;;;;;;;;;;;;;;;;;6269307;22;19994;-92
2022/07/27 16:58:29;;;;;;;;;;;;;;;;;;6296540;22;19918;-92
2022/07/27 17:01:06;;;;;;;;;;;;;;;;;;6271305;22;19923;-93